Time;durP1;ratioP1;P1;durP2;ratioP2;P2;SDS_P1;SDS_P2;PMS_P1;PMS_P2;Temp;Humidity;BMP_temperature;BMP_pressure;BME280_temperature;BME280_humidity;BME280_pressure;Samples;Min_cycle;Max_cycle;Signal;HPM_P1;HPM_P2
2021/09/06 00:01:15;;;;;;;11.10;9.33;;;15.70;99.90;;;;;;5037433;28;20501;-77
2021/09/06 00:04:03;;;;;;;15.23;8.90;;;15.70;99.90;;;;;;5043300;28;21112;-76
2021/09/06 00:06:48;;;;;;;11.23;7.80;;;15.70;99.90;;;;;;5048561;28;20447;-76
2021/09/06 00:09:35;;;;;;;13.23;8.10;;;15.70;99.90;;;;;;5044469;28;20436;-76
2021/09/06 00:12:21;;;;;;;11.33;8.83;;;15.70;99.90;;;;;;5047172;28;20495;-77
2021/09/06 00:15:07;;;;;;;13.03;8.57;;;15.70;99.90;;;;;;5040274;28;20463;-76
2021/09/06 00:17:53;;;;;;;11.93;9.40;;;15.60;99.90;;;;;;5042823;28;20989;-77
2021/09/06 00:20:42;;;;;;;12.73;8.50;;;15.60;99.90;;;;;;5042511;28;20449;-77
2021/09/06 00:23:28;;;;;;;18.37;8.57;;;15.60;99.90;;;;;;5049943;28;21257;-77
2021/09/06 00:26:14;;;;;;;12.73;8.83;;;15.60;99.90;;;;;;5049965;28;20470;-77
2021/09/06 00:29:00;;;;;;;10.73;8.20;;;15.70;99.90;;;;;;5043520;28;20531;-76
2021/09/06 00:31:45;;;;;;;15.00;8.60;;;15.80;99.90;;;;;;5054340;28;20398;-76
2021/09/06 00:34:31;;;;;;;10.50;8.57;;;15.80;99.90;;;;;;5051152;28;21036;-76
2021/09/06 00:37:18;;;;;;;9.53;7.83;;;15.80;99.90;;;;;;5047878;28;20453;-76
2021/09/06 00:40:06;;;;;;;13.67;9.00;;;15.80;99.90;;;;;;5041018;28;20418;-77
2021/09/06 00:42:51;;;;;;;12.43;8.10;;;15.80;99.90;;;;;;5053947;28;20403;-77
2021/09/06 00:45:38;;;;;;;12.27;8.53;;;15.80;99.90;;;;;;5052234;28;21102;-77
2021/09/06 00:48:25;;;;;;;12.90;9.17;;;15.90;99.90;;;;;;5054698;28;20501;-76
2021/09/06 00:51:11;;;;;;;10.13;8.10;;;15.90;99.90;;;;;;5051809;28;20469;-77
2021/09/06 00:53:58;;;;;;;17.10;9.17;;;16.10;99.90;;;;;;5035050;28;20442;-77
2021/09/06 00:56:45;;;;;;;10.20;8.67;;;16.10;99.90;;;;;;5051056;28;20490;-76
2021/09/06 00:59:31;;;;;;;12.90;9.40;;;16.10;99.90;;;;;;5053107;28;20537;-77
2021/09/06 01:02:17;;;;;;;10.33;8.37;;;16.00;99.90;;;;;;5049012;28;20428;-76
2021/09/06 01:05:04;;;;;;;12.33;9.00;;;16.00;99.90;;;;;;5037327;28;20521;-77
2021/09/06 01:07:49;;;;;;;12.27;8.67;;;16.10;99.90;;;;;;5053277;28;20462;-76
2021/09/06 01:10:36;;;;;;;12.40;9.70;;;16.10;99.90;;;;;;5049556;28;20849;-76
2021/09/06 01:13:22;;;;;;;15.30;8.00;;;16.10;99.90;;;;;;5053428;28;20425;-76
2021/09/06 01:16:07;;;;;;;11.87;8.90;;;16.20;99.90;;;;;;5048824;28;20456;-76
2021/09/06 01:18:53;;;;;;;11.03;8.10;;;16.30;99.90;;;;;;5049413;28;20962;-77
2021/09/06 01:21:39;;;;;;;11.23;8.57;;;16.30;99.90;;;;;;5040102;28;20484;-76
2021/09/06 01:24:25;;;;;;;13.30;8.57;;;16.30;99.90;;;;;;5054186;28;20547;-76
2021/09/06 01:27:12;;;;;;;11.20;8.37;;;16.30;99.90;;;;;;5051281;28;21067;-77
2021/09/06 01:29:57;;;;;;;10.33;9.20;;;16.40;99.90;;;;;;5049694;28;20432;-77
2021/09/06 01:32:43;;;;;;;10.97;8.30;;;16.40;99.90;;;;;;5051809;28;20421;-77
2021/09/06 01:35:29;;;;;;;11.50;7.97;;;16.40;99.90;;;;;;5048340;28;20461;-77
2021/09/06 01:38:15;;;;;;;9.50;7.83;;;16.30;99.90;;;;;;5048154;28;20801;-77
2021/09/06 01:41:01;;;;;;;10.77;8.23;;;16.30;99.90;;;;;;5047353;28;20469;-77
2021/09/06 01:43:48;;;;;;;10.37;8.30;;;16.30;99.90;;;;;;5048661;28;20456;-76
2021/09/06 01:46:35;;;;;;;11.70;8.37;;;16.30;99.90;;;;;;5042608;28;20469;-77
2021/09/06 01:49:21;;;;;;;11.70;8.90;;;16.40;99.90;;;;;;5045083;28;20558;-76
2021/09/06 01:52:07;;;;;;;10.00;8.53;;;16.40;99.90;;;;;;5041800;28;20499;-77
2021/09/06 01:54:53;;;;;;;11.37;7.70;;;16.40;99.90;;;;;;5053415;28;20403;-77
2021/09/06 01:57:39;;;;;;;9.07;8.10;;;16.50;99.90;;;;;;5051879;28;20497;-77
2021/09/06 02:00:26;;;;;;;10.00;8.10;;;16.40;99.90;;;;;;5045923;28;20581;-77
2021/09/06 02:03:12;;;;;;;12.40;8.43;;;16.30;99.90;;;;;;5038610;28;20530;-77
2021/09/06 02:05:58;;;;;;;11.37;8.03;;;16.20;99.90;;;;;;5053001;28;20443;-77
2021/09/06 02:08:43;;;;;;;17.67;8.83;;;16.20;99.90;;;;;;5046265;28;20802;-77
2021/09/06 02:11:29;;;;;;;15.73;7.90;;;16.10;99.90;;;;;;5043089;28;20428;-77
2021/09/06 02:14:15;;;;;;;13.40;8.40;;;16.00;99.90;;;;;;5052958;28;20758;-77
2021/09/06 02:17:02;;;;;;;15.00;9.60;;;16.00;99.90;;;;;;5048970;28;20460;-77
2021/09/06 02:19:47;;;;;;;10.43;7.97;;;15.90;99.90;;;;;;5052036;28;20408;-76
2021/09/06 02:22:33;;;;;;;15.87;9.60;;;15.80;99.90;;;;;;5042372;28;20474;-77
2021/09/06 02:25:18;;;;;;;11.20;8.93;;;15.80;99.90;;;;;;5048327;28;20519;-76
2021/09/06 02:28:04;;;;;;;13.50;9.00;;;15.80;99.90;;;;;;5053264;28;20411;-77
2021/09/06 02:30:50;;;;;;;14.67;8.80;;;15.80;99.90;;;;;;5048788;28;20493;-77
2021/09/06 02:33:38;;;;;;;12.40;8.57;;;15.70;99.90;;;;;;5044952;28;20529;-77
2021/09/06 02:36:23;;;;;;;11.07;8.13;;;15.60;99.90;;;;;;5053605;28;20427;-76
2021/09/06 02:39:09;;;;;;;16.73;8.97;;;15.50;99.90;;;;;;5051484;28;20443;-77
2021/09/06 02:41:58;;;;;;;14.40;9.67;;;15.50;99.90;;;;;;5049538;28;20465;-76
2021/09/06 02:44:44;;;;;;;11.83;9.83;;;15.40;99.90;;;;;;5046971;28;20439;-77
2021/09/06 02:47:30;;;;;;;10.87;8.83;;;15.30;99.90;;;;;;5049624;28;20464;-77
2021/09/06 02:50:17;;;;;;;11.27;9.13;;;15.40;99.90;;;;;;5049445;28;20461;-77
2021/09/06 02:53:03;;;;;;;14.27;8.83;;;15.20;99.90;;;;;;5052589;28;20491;-77
2021/09/06 02:55:49;;;;;;;11.70;8.17;;;15.30;99.90;;;;;;5040129;28;20419;-77
2021/09/06 02:58:34;;;;;;;8.90;7.57;;;15.20;99.90;;;;;;5063669;22;20807;-73
2021/09/06 03:01:20;;;;;;;13.33;9.20;;;15.20;99.90;;;;;;5031241;28;20450;-72
2021/09/06 03:04:06;;;;;;;10.17;8.33;;;15.20;99.90;;;;;;5030318;28;20419;-72
2021/09/06 03:06:52;;;;;;;13.30;8.43;;;15.30;99.90;;;;;;5036895;28;20444;-73
2021/09/06 03:09:38;;;;;;;11.37;9.30;;;15.40;99.90;;;;;;5021607;28;20763;-72
2021/09/06 03:12:24;;;;;;;14.50;8.63;;;15.60;99.90;;;;;;5011345;28;20801;-73
2021/09/06 03:15:11;;;;;;;12.83;9.70;;;15.70;99.90;;;;;;5010343;28;20791;-73
2021/09/06 03:17:57;;;;;;;10.33;8.53;;;15.70;99.90;;;;;;5022520;28;20554;-72
2021/09/06 03:20:43;;;;;;;11.53;8.33;;;15.50;99.90;;;;;;5023911;28;20415;-72
2021/09/06 03:23:30;;;;;;;9.60;7.90;;;15.40;99.90;;;;;;5023696;28;20428;-72
2021/09/06 03:26:16;;;;;;;10.90;8.37;;;15.40;99.90;;;;;;5015036;28;20580;-72
2021/09/06 03:29:02;;;;;;;14.87;9.27;;;15.20;99.90;;;;;;5020517;28;20884;-73
2021/09/06 03:31:47;;;;;;;10.57;9.00;;;15.10;99.90;;;;;;4994767;28;20417;-73
2021/09/06 03:34:33;;;;;;;14.37;8.80;;;15.00;99.90;;;;;;5018179;28;20430;-72
2021/09/06 03:37:19;;;;;;;13.10;9.87;;;15.00;99.90;;;;;;5022586;28;20446;-72
2021/09/06 03:40:07;;;;;;;14.00;9.33;;;15.10;99.90;;;;;;5014251;28;20430;-72
2021/09/06 03:42:53;;;;;;;14.83;10.70;;;15.00;99.90;;;;;;5018404;28;20516;-72
2021/09/06 03:45:38;;;;;;;11.50;10.30;;;14.90;99.90;;;;;;5004380;28;20452;-73
2021/09/06 03:48:24;;;;;;;14.30;10.53;;;15.00;99.90;;;;;;5016358;28;20961;-72
2021/09/06 03:51:10;;;;;;;12.23;9.60;;;15.10;99.90;;;;;;5012845;28;20457;-72
2021/09/06 03:53:55;;;;;;;11.20;9.57;;;15.00;99.90;;;;;;5015554;28;20508;-72
2021/09/06 03:56:42;;;;;;;12.47;8.63;;;15.00;99.90;;;;;;5017624;28;20420;-72
2021/09/06 03:59:28;;;;;;;12.03;9.37;;;15.00;99.90;;;;;;5012768;28;20462;-72
2021/09/06 04:02:13;;;;;;;10.93;9.40;;;15.00;99.90;;;;;;5012468;28;20444;-72
2021/09/06 04:04:59;;;;;;;13.50;9.67;;;14.90;99.90;;;;;;5010750;28;20424;-72
2021/09/06 04:07:45;;;;;;;10.77;8.60;;;14.70;99.90;;;;;;5013210;28;20974;-72
2021/09/06 04:10:32;;;;;;;11.40;8.70;;;14.70;99.90;;;;;;5019999;28;20986;-72
2021/09/06 04:13:19;;;;;;;11.80;9.97;;;14.70;99.90;;;;;;5023004;28;20427;-73
2021/09/06 04:16:05;;;;;;;10.03;8.50;;;14.80;99.90;;;;;;5018644;28;20762;-73
2021/09/06 04:18:51;;;;;;;10.67;8.90;;;14.70;99.90;;;;;;5021278;28;20417;-73
2021/09/06 04:21:36;;;;;;;41.60;10.40;;;14.80;99.90;;;;;;5021854;28;20561;-73
2021/09/06 04:24:23;;;;;;;13.10;9.93;;;14.60;99.90;;;;;;5015650;28;20432;-74
2021/09/06 04:27:09;;;;;;;10.67;8.50;;;14.60;99.90;;;;;;5011379;28;20432;-74
2021/09/06 04:29:56;;;;;;;14.73;8.00;;;14.60;99.90;;;;;;5015212;28;20414;-74
2021/09/06 04:32:41;;;;;;;10.63;8.87;;;14.70;99.90;;;;;;5012687;28;20522;-73
2021/09/06 04:35:27;;;;;;;14.10;9.37;;;14.60;99.90;;;;;;5019389;28;20565;-74
2021/09/06 04:38:12;;;;;;;9.60;8.60;;;14.60;99.90;;;;;;5019444;28;20428;-74
2021/09/06 04:40:58;;;;;;;10.87;8.70;;;14.80;99.90;;;;;;5018920;28;20811;-73
2021/09/06 04:43:45;;;;;;;10.53;8.30;;;14.80;99.90;;;;;;4998817;28;20485;-73
2021/09/06 04:46:32;;;;;;;10.57;8.97;;;14.80;99.90;;;;;;5014767;28;20597;-74
2021/09/06 04:49:18;;;;;;;11.00;9.63;;;14.70;99.90;;;;;;5013425;28;20666;-73
2021/09/06 04:52:05;;;;;;;11.10;8.77;;;14.60;99.90;;;;;;5012322;28;20397;-73
2021/09/06 04:54:50;;;;;;;14.70;9.37;;;14.60;99.90;;;;;;5012268;28;20447;-74
2021/09/06 04:57:36;;;;;;;11.27;8.97;;;14.50;99.90;;;;;;5011024;28;20457;-73
2021/09/06 05:00:22;;;;;;;14.00;8.60;;;14.40;99.90;;;;;;5017102;28;20429;-74
2021/09/06 05:03:09;;;;;;;11.60;8.83;;;14.50;99.90;;;;;;5019849;28;20391;-73
2021/09/06 05:05:55;;;;;;;10.23;7.47;;;14.60;99.90;;;;;;5020966;28;20497;-74
2021/09/06 05:08:41;;;;;;;12.10;8.00;;;14.60;99.90;;;;;;5015065;28;20576;-74
2021/09/06 05:11:28;;;;;;;10.43;8.60;;;14.60;99.90;;;;;;5018509;28;20514;-73
2021/09/06 05:14:14;;;;;;;16.60;8.50;;;14.60;99.90;;;;;;5019397;28;20449;-74
2021/09/06 05:16:59;;;;;;;15.33;9.47;;;14.60;99.90;;;;;;5014299;28;20987;-74
2021/09/06 05:19:46;;;;;;;10.60;8.73;;;14.70;99.90;;;;;;5019677;28;20444;-74
2021/09/06 05:22:32;;;;;;;11.37;7.77;;;14.60;99.90;;;;;;5014544;28;20436;-74
2021/09/06 05:25:18;;;;;;;9.70;8.17;;;14.60;99.90;;;;;;5003868;28;20421;-73
2021/09/06 05:28:04;;;;;;;10.60;8.03;;;14.60;99.90;;;;;;5003307;28;20456;-74
2021/09/06 05:30:50;;;;;;;10.90;8.60;;;14.60;99.90;;;;;;5024962;28;20495;-74
2021/09/06 05:33:36;;;;;;;11.30;8.77;;;14.70;99.90;;;;;;5017731;28;20425;-74
2021/09/06 05:36:23;;;;;;;9.83;8.80;;;14.80;99.90;;;;;;5029235;28;20496;-73
2021/09/06 05:39:08;;;;;;;9.90;8.60;;;14.90;99.90;;;;;;5024543;28;20438;-74
2021/09/06 05:41:54;;;;;;;12.03;8.87;;;15.00;99.90;;;;;;5018282;28;20422;-73
2021/09/06 05:44:39;;;;;;;11.73;8.57;;;15.10;99.90;;;;;;5022555;28;20421;-74
2021/09/06 05:47:25;;;;;;;12.10;8.77;;;15.20;99.90;;;;;;5025947;28;20482;-74
2021/09/06 05:50:17;;;;;;;15.47;8.03;;;15.30;99.90;;;;;;5015713;28;20557;-74
2021/09/06 05:53:04;;;;;;;12.00;9.10;;;15.40;99.90;;;;;;5011205;28;20941;-74
2021/09/06 05:55:50;;;;;;;11.00;8.27;;;15.50;99.90;;;;;;5006868;28;20433;-74
2021/09/06 05:58:35;;;;;;;11.10;8.53;;;15.60;99.90;;;;;;5018640;28;20461;-74
2021/09/06 06:01:21;;;;;;;11.30;8.13;;;15.70;99.90;;;;;;5015079;28;20405;-73
2021/09/06 06:04:06;;;;;;;10.67;8.77;;;15.70;99.90;;;;;;5015369;28;20430;-73
2021/09/06 06:06:52;;;;;;;12.37;9.43;;;15.70;99.90;;;;;;5021173;28;20476;-74
2021/09/06 06:09:38;;;;;;;11.83;10.00;;;15.80;99.90;;;;;;5018715;28;20431;-74
2021/09/06 06:12:27;;;;;;;13.30;9.97;;;15.80;99.90;;;;;;5012135;28;20527;-74
2021/09/06 06:15:12;;;;;;;13.73;9.00;;;15.90;99.90;;;;;;5012776;28;20396;-73
2021/09/06 06:17:58;;;;;;;11.40;8.67;;;15.90;99.90;;;;;;5020463;28;20539;-73
2021/09/06 06:20:44;;;;;;;13.97;9.37;;;15.90;99.90;;;;;;5013562;28;20397;-74
2021/09/06 06:23:29;;;;;;;14.90;10.27;;;16.00;99.90;;;;;;5013505;28;20434;-74
2021/09/06 06:26:17;;;;;;;11.57;9.33;;;16.00;99.90;;;;;;5000281;28;20469;-74
2021/09/06 06:29:02;;;;;;;11.40;9.57;;;16.10;99.90;;;;;;5021262;28;20469;-74
2021/09/06 06:31:48;;;;;;;11.77;9.37;;;16.20;99.90;;;;;;5018201;28;20428;-74
2021/09/06 06:34:34;;;;;;;11.00;9.33;;;16.30;99.90;;;;;;5018242;28;20422;-74
2021/09/06 06:37:19;;;;;;;12.27;9.20;;;16.40;99.90;;;;;;5011805;28;20425;-74
2021/09/06 06:40:06;;;;;;;14.43;9.60;;;16.50;99.90;;;;;;5007189;28;20793;-73
2021/09/06 06:42:53;;;;;;;10.90;8.97;;;16.60;99.90;;;;;;5024165;28;20510;-74
2021/09/06 06:45:38;;;;;;;12.50;10.63;;;16.80;99.90;;;;;;5013360;28;20429;-74
2021/09/06 06:48:24;;;;;;;12.50;9.80;;;16.90;99.90;;;;;;5017161;28;20448;-74
2021/09/06 06:51:10;;;;;;;12.33;10.23;;;17.00;99.90;;;;;;5020218;28;20560;-75
2021/09/06 06:53:55;;;;;;;10.57;9.40;;;17.10;99.90;;;;;;5017687;28;20432;-74
2021/09/06 06:56:41;;;;;;;11.60;9.57;;;17.20;99.90;;;;;;5021775;28;20451;-73
2021/09/06 06:59:28;;;;;;;11.90;9.77;;;17.30;99.90;;;;;;5017369;28;21026;-75
2021/09/06 07:02:14;;;;;;;15.43;9.77;;;17.40;99.90;;;;;;5020053;28;20498;-74
2021/09/06 07:04:59;;;;;;;11.27;9.60;;;17.30;99.90;;;;;;4993571;28;20495;-74
2021/09/06 07:07:45;;;;;;;12.23;10.30;;;17.30;99.90;;;;;;5021617;28;20457;-74
2021/09/06 07:10:31;;;;;;;13.10;10.17;;;17.40;99.90;;;;;;5020231;28;20929;-75
2021/09/06 07:13:16;;;;;;;12.70;10.20;;;17.60;99.90;;;;;;5016862;28;20429;-74
2021/09/06 07:16:03;;;;;;;13.13;9.47;;;17.60;99.90;;;;;;5018659;28;20450;-73
2021/09/06 07:18:50;;;;;;;13.63;8.90;;;17.70;99.90;;;;;;5020839;28;20663;-74
2021/09/06 07:21:36;;;;;;;14.30;9.90;;;17.80;99.90;;;;;;5017823;28;20475;-74
2021/09/06 07:24:21;;;;;;;13.83;10.97;;;18.00;99.90;;;;;;5020794;28;20453;-74
2021/09/06 07:27:07;;;;;;;10.50;9.10;;;18.10;99.90;;;;;;5017668;28;20468;-74
2021/09/06 07:29:53;;;;;;;21.20;10.03;;;18.20;99.90;;;;;;5016182;28;20436;-74
2021/09/06 07:32:40;;;;;;;11.43;8.83;;;18.30;99.90;;;;;;5024351;28;20981;-74
2021/09/06 07:35:26;;;;;;;12.00;9.60;;;18.30;99.90;;;;;;5015240;28;20455;-74
2021/09/06 07:38:11;;;;;;;10.10;9.10;;;18.30;99.90;;;;;;5007878;28;20988;-74
2021/09/06 07:40:57;;;;;;;10.60;8.87;;;18.40;99.90;;;;;;5024585;28;20418;-74
2021/09/06 07:43:44;;;;;;;14.53;9.87;;;18.50;99.90;;;;;;5020192;28;20471;-74
2021/09/06 07:46:29;;;;;;;12.83;9.63;;;18.70;99.90;;;;;;5016544;28;20951;-75
2021/09/06 07:49:17;;;;;;;13.83;10.10;;;18.70;99.90;;;;;;5020682;28;20454;-74
2021/09/06 07:52:03;;;;;;;14.37;9.50;;;18.80;99.90;;;;;;5022159;28;20564;-74
2021/09/06 07:54:48;;;;;;;11.80;8.40;;;18.90;99.90;;;;;;5011822;28;20509;-74
2021/09/06 07:57:34;;;;;;;12.77;9.77;;;19.10;99.90;;;;;;5017676;28;20510;-74
2021/09/06 08:00:20;;;;;;;12.87;8.30;;;19.10;99.90;;;;;;5020997;28;20425;-74
2021/09/06 08:03:06;;;;;;;10.27;8.47;;;19.30;99.90;;;;;;5020431;28;20491;-74
2021/09/06 08:05:53;;;;;;;10.20;8.80;;;19.30;99.90;;;;;;5015410;28;20470;-74
2021/09/06 08:08:38;;;;;;;9.30;8.30;;;19.50;99.90;;;;;;5012528;28;20470;-74
2021/09/06 08:11:24;;;;;;;10.93;9.40;;;19.60;99.90;;;;;;5017082;28;20934;-74
2021/09/06 08:14:10;;;;;;;11.33;8.73;;;19.80;99.90;;;;;;5018824;28;20862;-74
2021/09/06 08:16:55;;;;;;;11.40;8.03;;;19.90;99.90;;;;;;5031672;28;20569;-75
2021/09/06 08:19:41;;;;;;;9.27;7.90;;;20.00;99.90;;;;;;5011673;28;20452;-74
2021/09/06 08:22:28;;;;;;;11.07;7.73;;;20.10;99.90;;;;;;5014006;28;20449;-75
2021/09/06 08:25:16;;;;;;;13.30;9.50;;;20.20;99.90;;;;;;5013620;28;20930;-75
2021/09/06 08:28:01;;;;;;;17.43;8.97;;;20.30;99.90;;;;;;5015005;28;20515;-74
2021/09/06 08:30:47;;;;;;;11.07;9.00;;;20.50;99.90;;;;;;5023102;28;20476;-74
2021/09/06 08:33:33;;;;;;;10.03;8.00;;;20.60;99.90;;;;;;5016998;28;20821;-74
2021/09/06 08:36:18;;;;;;;10.70;9.03;;;20.70;99.90;;;;;;5016675;28;20657;-74
2021/09/06 08:39:05;;;;;;;8.77;7.83;;;20.80;99.90;;;;;;5013557;28;20617;-74
2021/09/06 08:41:52;;;;;;;11.87;8.20;;;20.90;99.90;;;;;;5026831;28;20429;-75
2021/09/06 08:44:37;;;;;;;11.03;8.33;;;21.00;99.90;;;;;;5023657;28;20780;-75
2021/09/06 08:47:23;;;;;;;10.73;9.00;;;21.10;99.90;;;;;;5022204;28;20970;-74
2021/09/06 08:50:13;;;;;;;9.80;7.90;;;21.30;99.90;;;;;;5021254;28;20406;-74
2021/09/06 08:53:00;;;;;;;13.43;8.10;;;21.40;99.90;;;;;;5014861;28;20509;-74
2021/09/06 08:55:47;;;;;;;10.87;7.70;;;21.60;99.90;;;;;;5014613;28;21016;-73
2021/09/06 08:58:33;;;;;;;9.33;7.57;;;21.70;99.90;;;;;;5049412;22;20506;-77
2021/09/06 09:01:18;;;;;;;10.87;8.47;;;21.80;99.90;;;;;;5060247;28;20461;-78
2021/09/06 09:04:15;;;;;;;10.13;7.47;;;21.90;99.90;;;;;;5057606;28;20425;-80
2021/09/06 09:07:03;;;;;;;12.50;8.00;;;22.10;99.90;;;;;;5058360;28;20438;-79
2021/09/06 09:09:48;;;;;;;9.60;7.70;;;22.20;99.90;;;;;;5039564;28;20490;-78
2021/09/06 09:12:37;;;;;;;9.53;7.37;;;22.30;99.90;;;;;;5038161;28;20508;-74
2021/09/06 09:15:23;;;;;;;8.47;7.53;;;22.40;99.90;;;;;;5030732;28;20575;-75
2021/09/06 09:18:10;;;;;;;16.37;7.80;;;22.50;99.90;;;;;;5018930;28;20458;-74
2021/09/06 09:21:02;;;;;;;7.80;6.93;;;22.60;99.90;;;;;;5022440;28;20452;-74
2021/09/06 09:23:51;;;;;;;11.77;7.77;;;22.70;99.90;;;;;;5028706;28;20456;-74
2021/09/06 09:26:36;;;;;;;7.67;6.90;;;22.90;99.90;;;;;;5024564;28;20820;-74
2021/09/06 09:29:23;;;;;;;11.53;6.87;;;23.00;99.90;;;;;;5031857;28;20464;-74
2021/09/06 09:32:11;;;;;;;8.37;7.03;;;23.10;99.90;;;;;;5021146;28;20462;-75
2021/09/06 09:34:57;;;;;;;11.77;6.33;;;23.20;99.90;;;;;;5024815;28;20409;-75
2021/09/06 09:37:42;;;;;;;9.07;7.57;;;23.30;99.90;;;;;;5029920;28;20448;-75
2021/09/06 09:40:33;;;;;;;10.73;6.77;;;23.30;99.90;;;;;;5025945;28;20554;-74
2021/09/06 09:43:29;;;;;;;8.83;6.00;;;23.30;96.40;;;;;;5026899;28;20502;-74
2021/09/06 09:46:20;;;;;;;8.80;5.90;;;23.40;95.50;;;;;;5020527;28;20441;-75
2021/09/06 09:49:11;;;;;;;7.80;6.57;;;23.40;83.20;;;;;;5019661;28;20488;-75
2021/09/06 09:51:58;;;;;;;7.93;6.60;;;23.50;74.40;;;;;;5016566;28;20935;-75
2021/09/06 09:54:43;;;;;;;7.50;6.50;;;23.60;72.00;;;;;;5019414;28;20514;-75
2021/09/06 09:57:29;;;;;;;10.67;5.80;;;23.80;74.20;;;;;;5024608;28;20439;-75
2021/09/06 10:00:15;;;;;;;9.63;7.00;;;23.90;77.60;;;;;;5027170;28;20866;-75
2021/09/06 10:03:05;;;;;;;9.10;6.73;;;23.90;68.10;;;;;;5031338;28;20470;-75
2021/09/06 10:05:52;;;;;;;8.73;7.20;;;24.00;72.40;;;;;;5035554;28;20952;-75
2021/09/06 10:08:37;;;;;;;14.83;7.00;;;24.00;74.60;;;;;;5031775;28;20454;-75
2021/09/06 10:11:35;;;;;;;7.50;6.20;;;24.10;83.70;;;;;;5024808;28;20428;-75
2021/09/06 10:14:25;;;;;;;9.67;6.70;;;24.30;79.10;;;;;;5027384;28;20498;-75
2021/09/06 10:17:11;;;;;;;17.37;7.83;;;24.40;77.00;;;;;;5016656;28;20457;-74
2021/09/06 10:19:58;;;;;;;13.40;7.93;;;24.50;79.10;;;;;;5022228;28;20411;-74
2021/09/06 10:22:45;;;;;;;8.10;6.63;;;24.60;71.50;;;;;;5022938;28;20536;-74
2021/09/06 10:25:34;;;;;;;8.60;7.07;;;24.60;68.20;;;;;;5031107;28;20539;-75
2021/09/06 10:28:19;;;;;;;7.90;6.70;;;24.60;66.00;;;;;;5015045;28;20481;-74
2021/09/06 10:31:06;;;;;;;11.47;6.30;;;24.60;64.10;;;;;;5018696;28;20495;-74
2021/09/06 10:33:59;;;;;;;8.23;6.93;;;24.70;60.00;;;;;;5020460;28;20432;-74
2021/09/06 10:36:56;;;;;;;10.37;6.73;;;24.80;63.00;;;;;;5027732;28;20445;-75
2021/09/06 10:39:46;;;;;;;7.37;6.30;;;25.10;61.20;;;;;;5023042;28;21013;-74
2021/09/06 10:42:34;;;;;;;11.57;6.87;;;25.20;63.10;;;;;;5031154;28;20425;-74
2021/09/06 10:45:21;;;;;;;8.90;7.33;;;25.30;58.90;;;;;;5032174;28;20444;-75
2021/09/06 10:48:07;;;;;;;8.60;6.77;;;25.50;62.40;;;;;;5034300;28;20544;-75
2021/09/06 10:50:55;;;;;;;9.10;6.83;;;25.70;57.70;;;;;;5034682;28;20403;-75
2021/09/06 10:53:42;;;;;;;8.80;7.10;;;25.80;59.30;;;;;;5031236;28;20583;-75
2021/09/06 10:56:29;;;;;;;10.73;6.47;;;25.90;59.60;;;;;;5033584;28;20519;-75
2021/09/06 10:59:15;;;;;;;10.80;7.63;;;26.20;59.10;;;;;;5033741;28;20463;-75
2021/09/06 11:02:01;;;;;;;7.63;6.43;;;25.90;50.80;;;;;;5033763;28;20441;-75
2021/09/06 11:04:47;;;;;;;9.07;6.97;;;25.80;51.60;;;;;;5033950;28;20446;-75
2021/09/06 11:07:33;;;;;;;9.40;7.40;;;25.90;54.60;;;;;;5027336;28;20578;-75
2021/09/06 11:10:22;;;;;;;7.87;6.70;;;26.10;55.80;;;;;;5034165;28;20568;-75
2021/09/06 11:13:08;;;;;;;9.13;7.13;;;26.30;55.30;;;;;;5033011;28;20426;-75
2021/09/06 11:15:54;;;;;;;9.10;6.70;;;26.30;51.10;;;;;;5033595;28;20466;-75
2021/09/06 11:18:41;;;;;;;6.90;6.13;;;26.30;50.70;;;;;;5034141;28;20584;-75
2021/09/06 11:21:27;;;;;;;11.40;7.23;;;26.30;53.60;;;;;;5032126;28;20450;-75
2021/09/06 11:24:12;;;;;;;11.87;7.30;;;26.40;53.90;;;;;;5013241;28;20455;-75
2021/09/06 11:26:59;;;;;;;9.03;6.20;;;26.60;57.00;;;;;;5013957;28;20425;-75
2021/09/06 11:29:45;;;;;;;8.97;7.23;;;26.80;54.00;;;;;;5012417;28;20525;-75
2021/09/06 11:32:31;;;;;;;8.27;7.10;;;26.60;49.00;;;;;;5021509;28;20946;-75
2021/09/06 11:35:20;;;;;;;8.83;6.87;;;26.50;51.10;;;;;;5031637;28;20459;-75
2021/09/06 11:38:06;;;;;;;7.10;6.00;;;26.50;49.80;;;;;;5031462;28;20956;-75
2021/09/06 11:40:54;;;;;;;8.50;7.30;;;26.50;55.10;;;;;;5032301;28;20486;-75
2021/09/06 11:43:42;;;;;;;10.17;6.50;;;26.70;53.60;;;;;;5032454;28;20840;-75
2021/09/06 11:46:28;;;;;;;10.40;7.43;;;26.90;52.00;;;;;;5032065;28;20495;-75
2021/09/06 11:49:18;;;;;;;8.40;6.70;;;27.10;50.30;;;;;;5032376;28;20899;-75
2021/09/06 11:52:09;;;;;;;11.13;6.63;;;27.00;49.70;;;;;;5021014;28;20458;-75
2021/09/06 11:54:55;;;;;;;7.43;6.20;;;27.10;50.00;;;;;;5011976;28;20479;-75
2021/09/06 11:57:40;;;;;;;11.20;6.03;;;27.30;48.00;;;;;;5012508;28;20956;-75
2021/09/06 12:00:27;;;;;;;7.67;6.30;;;27.20;47.60;;;;;;5025071;28;20450;-75
2021/09/06 12:03:24;;;;;;;7.53;6.33;;;27.20;46.70;;;;;;5030471;28;20495;-75
2021/09/06 12:06:12;;;;;;;6.40;5.70;;;27.40;47.10;;;;;;5030764;28;21059;-76
2021/09/06 12:08:59;;;;;;;7.57;6.37;;;27.50;45.70;;;;;;5031626;28;21002;-78
2021/09/06 12:11:46;;;;;;;8.03;6.37;;;27.40;46.80;;;;;;5030900;28;20538;-76
2021/09/06 12:14:43;;;;;;;12.97;6.70;;;27.50;46.90;;;;;;5028144;28;20462;-77
2021/09/06 12:17:35;;;;;;;7.30;6.33;;;27.60;49.10;;;;;;5031634;28;20944;-78
2021/09/06 12:20:27;;;;;;;7.60;6.60;;;27.50;45.40;;;;;;5034870;28;20811;-78
2021/09/06 12:23:26;;;;;;;16.33;6.60;;;27.30;45.90;;;;;;5022549;28;20981;-77
2021/09/06 12:26:13;;;;;;;8.70;5.93;;;27.20;44.80;;;;;;5030578;28;20428;-77
2021/09/06 12:29:01;;;;;;;10.00;6.40;;;27.50;46.90;;;;;;5033761;28;20483;-77
2021/09/06 12:31:46;;;;;;;10.30;6.70;;;27.70;44.40;;;;;;5033493;28;20425;-77
2021/09/06 12:34:33;;;;;;;7.10;6.17;;;27.60;43.30;;;;;;5035047;28;20438;-76
2021/09/06 12:37:22;;;;;;;15.13;6.73;;;27.70;45.90;;;;;;5032215;28;20442;-77
2021/09/06 12:40:09;;;;;;;7.90;6.43;;;27.90;47.00;;;;;;5034548;28;20446;-77
2021/09/06 12:42:54;;;;;;;7.83;6.67;;;28.30;47.60;;;;;;5034614;28;20445;-77
2021/09/06 12:45:41;;;;;;;7.93;6.50;;;28.50;43.90;;;;;;5035345;28;20565;-78
2021/09/06 12:48:27;;;;;;;8.63;6.43;;;28.60;43.30;;;;;;5029586;28;20838;-78
2021/09/06 12:51:14;;;;;;;7.40;5.77;;;28.60;42.00;;;;;;5019843;28;20514;-78
2021/09/06 12:54:00;;;;;;;9.13;6.13;;;28.90;43.50;;;;;;5029104;28;20443;-76
2021/09/06 12:56:46;;;;;;;9.37;6.90;;;28.90;41.80;;;;;;5034884;28;20420;-77
2021/09/06 12:59:32;;;;;;;7.37;5.80;;;29.20;42.60;;;;;;5035372;28;20479;-75
2021/09/06 13:02:17;;;;;;;7.27;6.13;;;29.50;42.80;;;;;;5029790;28;20495;-78
2021/09/06 13:05:04;;;;;;;6.20;5.33;;;29.80;40.10;;;;;;5033103;28;20451;-78
2021/09/06 13:07:51;;;;;;;11.67;6.80;;;30.00;37.70;;;;;;5032762;28;20980;-77
2021/09/06 13:10:37;;;;;;;6.20;5.50;;;30.10;38.50;;;;;;5027886;28;20445;-75
2021/09/06 13:13:23;;;;;;;8.37;6.10;;;30.10;36.70;;;;;;5030240;28;20454;-74
2021/09/06 13:16:08;;;;;;;8.23;6.73;;;30.10;38.50;;;;;;5022900;28;20495;-74
2021/09/06 13:18:54;;;;;;;8.67;7.13;;;30.40;35.80;;;;;;5025852;28;20796;-74
2021/09/06 13:21:40;;;;;;;8.73;6.80;;;30.60;36.60;;;;;;5018143;28;20427;-74
2021/09/06 13:24:27;;;;;;;7.27;6.47;;;30.70;35.20;;;;;;5034041;28;20548;-74
2021/09/06 13:27:12;;;;;;;6.73;5.90;;;30.80;35.30;;;;;;5033317;28;20844;-74
2021/09/06 13:29:58;;;;;;;8.40;6.50;;;30.60;35.10;;;;;;5021324;28;20912;-73
2021/09/06 13:32:44;;;;;;;7.70;6.40;;;30.50;35.60;;;;;;5019668;28;20844;-73
2021/09/06 13:35:29;;;;;;;8.87;6.60;;;30.70;36.70;;;;;;5029592;28;20420;-73
2021/09/06 13:38:15;;;;;;;8.27;6.97;;;30.90;35.30;;;;;;5027720;28;20492;-73
2021/09/06 13:41:02;;;;;;;7.40;6.53;;;30.80;35.30;;;;;;5014429;28;20414;-73
2021/09/06 13:43:47;;;;;;;8.40;5.80;;;31.10;35.50;;;;;;5014165;28;20508;-74
2021/09/06 13:46:33;;;;;;;7.90;5.93;;;31.30;36.00;;;;;;5028177;28;20510;-73
2021/09/06 13:49:19;;;;;;;13.03;6.70;;;31.00;35.40;;;;;;5033679;28;21000;-73
2021/09/06 13:52:05;;;;;;;7.80;5.73;;;31.00;36.00;;;;;;5034058;28;20425;-73
2021/09/06 13:54:51;;;;;;;7.20;6.33;;;31.20;35.60;;;;;;5033242;28;20451;-73
2021/09/06 13:57:38;;;;;;;9.83;6.40;;;31.20;34.40;;;;;;5033994;28;20425;-74
2021/09/06 14:00:23;;;;;;;11.87;6.53;;;30.70;33.70;;;;;;5033841;28;20485;-74
2021/09/06 14:03:09;;;;;;;6.90;5.93;;;30.00;36.00;;;;;;5019951;28;20523;-74
2021/09/06 14:05:55;;;;;;;8.33;6.57;;;29.40;38.70;;;;;;5034728;28;20495;-74
2021/09/06 14:08:40;;;;;;;10.70;6.23;;;28.90;41.40;;;;;;5024706;28;20736;-74
2021/09/06 14:11:26;;;;;;;8.87;7.03;;;28.60;41.40;;;;;;5031316;28;20949;-73
2021/09/06 14:14:13;;;;;;;6.33;5.60;;;28.30;42.30;;;;;;5031784;28;20444;-74
2021/09/06 14:16:59;;;;;;;9.13;6.27;;;28.00;46.20;;;;;;5024402;28;20470;-74
2021/09/06 14:19:44;;;;;;;9.70;6.70;;;27.80;49.30;;;;;;5031155;28;20462;-74